createdAt,value
2022-08-10T00:01:53.737Z,2.25
2022-08-10T00:04:22.436Z,2.38
2022-08-10T00:06:53.573Z,2.45
2022-08-10T00:09:21.027Z,2.55
2022-08-10T00:11:47.456Z,2.53
2022-08-10T00:14:13.885Z,2.40
2022-08-10T00:16:40.463Z,2.22
2022-08-10T00:19:06.890Z,2.72
2022-08-10T00:21:33.303Z,2.60
2022-08-10T00:23:59.725Z,2.80
2022-08-10T00:26:26.119Z,2.30
2022-08-10T00:28:52.554Z,2.35
2022-08-10T00:31:18.964Z,2.58
2022-08-10T00:33:45.378Z,2.40
2022-08-10T00:36:11.912Z,2.70
2022-08-10T00:38:38.329Z,2.58
2022-08-10T00:41:04.911Z,2.47
2022-08-10T00:43:31.553Z,2.65
2022-08-10T00:45:59.129Z,3.00
2022-08-10T00:48:28.311Z,3.10
2022-08-10T00:50:54.984Z,2.88
2022-08-10T00:53:21.544Z,2.92
2022-08-10T00:57:12.725Z,2.85
2022-08-10T00:58:35.466Z,2.72
2022-08-10T01:01:02.019Z,2.83
2022-08-10T01:04:36.497Z,2.72
2022-08-10T01:06:32.451Z,2.90
2022-08-10T01:09:21.832Z,3.08
2022-08-10T01:12:34.271Z,2.95
2022-08-10T01:14:52.111Z,3.25
2022-08-10T01:17:50.384Z,3.10
2022-08-10T01:20:30.039Z,3.30
2022-08-10T01:23:25.433Z,3.35
2022-08-10T01:26:30.373Z,3.33
2022-08-10T01:29:25.207Z,3.17
2022-08-10T01:31:54.006Z,3.10
2022-08-10T01:34:34.113Z,3.15
2022-08-10T01:37:05.595Z,3.38
2022-08-10T01:39:39.701Z,3.15
2022-08-10T01:42:07.032Z,3.38
2022-08-10T01:44:39.854Z,3.22
2022-08-10T01:47:30.117Z,3.05
2022-08-10T01:50:02.600Z,3.20
2022-08-10T01:52:29.823Z,3.15
2022-08-10T01:54:57.150Z,3.08
2022-08-10T01:57:24.690Z,3.97
2022-08-10T01:59:54.542Z,3.10
2022-08-10T02:02:29.156Z,3.67
2022-08-10T02:04:55.926Z,3.10
2022-08-10T02:07:25.400Z,3.05
2022-08-10T02:09:53.724Z,3.97
2022-08-10T02:12:23.240Z,3.65
2022-08-10T02:14:59.470Z,3.22
2022-08-10T02:17:58.687Z,3.90
2022-08-10T02:20:18.794Z,3.30
2022-08-10T02:22:49.343Z,3.58
2022-08-10T02:25:42.676Z,3.53
2022-08-10T02:28:05.091Z,3.40
2022-08-10T02:30:32.260Z,3.67
2022-08-10T02:32:59.028Z,4.18
2022-08-10T02:35:27.120Z,3.30
2022-08-10T02:38:00.204Z,3.85
2022-08-10T02:45:02.708Z,4.00
2022-08-10T02:45:15.406Z,3.65
2022-08-10T02:46:18.421Z,3.92
2022-08-10T02:48:52.035Z,4.53
2022-08-10T02:52:06.855Z,4.82
2022-08-10T02:54:22.129Z,4.15
2022-08-10T02:56:55.465Z,4.40
2022-08-10T02:59:39.667Z,4.00
2022-08-10T03:02:08.826Z,4.13
2022-08-10T03:04:54.580Z,4.20
2022-08-10T03:07:43.434Z,4.50
2022-08-10T03:10:14.530Z,4.25
2022-08-10T03:12:42.587Z,4.05
2022-08-10T03:15:15.595Z,4.07
2022-08-10T03:17:57.403Z,4.20
2022-08-10T03:23:11.638Z,4.40
2022-08-10T03:28:04.888Z,4.70
2022-08-10T03:30:33.937Z,4.85
2022-08-10T03:33:03.166Z,4.65
2022-08-10T03:35:29.680Z,4.90
2022-08-10T03:37:59.170Z,4.03
2022-08-10T03:40:45.798Z,3.88
2022-08-10T03:43:16.014Z,4.50
2022-08-10T03:45:49.421Z,4.40
2022-08-10T03:48:23.878Z,4.65
2022-08-10T03:50:52.021Z,3.90
2022-08-10T03:53:24.332Z,5.32
2022-08-10T03:56:30.341Z,4.47
2022-08-10T03:58:52.584Z,4.15
2022-08-10T04:01:19.645Z,4.85
2022-08-10T04:03:46.151Z,4.35
2022-08-10T04:06:12.834Z,5.00
2022-08-10T04:08:43.206Z,4.55
2022-08-10T04:11:10.445Z,4.38
2022-08-10T04:13:37.916Z,4.55
2022-08-10T04:16:07.454Z,4.05
2022-08-10T04:18:34.181Z,4.07
2022-08-10T04:21:12.643Z,4.75
2022-08-10T04:23:43.590Z,5.45
2022-08-10T04:26:11.675Z,4.55
2022-08-10T04:28:38.373Z,4.70
2022-08-10T04:31:06.463Z,5.00
2022-08-10T04:33:33.434Z,4.88
2022-08-10T04:36:00.733Z,5.40
2022-08-10T04:38:27.726Z,4.68
2022-08-10T04:40:54.322Z,4.85
2022-08-10T04:43:20.919Z,4.88
2022-08-10T04:45:51.694Z,4.97
2022-08-10T04:48:40.551Z,4.55
2022-08-10T04:51:07.941Z,4.78
2022-08-10T04:54:03.345Z,4.70
2022-08-10T04:56:31.600Z,4.85
2022-08-10T04:58:59.120Z,5.50
2022-08-10T05:01:26.480Z,5.35
2022-08-10T05:04:37.568Z,5.80
2022-08-10T05:06:39.380Z,5.72
2022-08-10T05:09:05.784Z,5.45
2022-08-10T05:11:32.186Z,5.50
2022-08-10T05:13:58.619Z,6.05
2022-08-10T05:16:31.622Z,6.07
2022-08-10T05:18:58.656Z,6.05
2022-08-10T05:22:02.524Z,6.30
2022-08-10T05:24:11.682Z,5.60
2022-08-10T05:26:55.323Z,6.80
2022-08-10T05:29:24.500Z,6.50
2022-08-10T05:31:51.217Z,7.25
2022-08-10T05:34:20.323Z,6.85
2022-08-10T05:36:47.993Z,6.85
2022-08-10T05:39:15.309Z,6.60
2022-08-10T05:41:46.105Z,7.03
2022-08-10T05:44:14.303Z,6.38
2022-08-10T05:46:41.194Z,6.47
2022-08-10T05:49:07.606Z,5.85
2022-08-10T05:51:34.011Z,6.43
2022-08-10T05:54:06.070Z,6.30
2022-08-10T05:56:54.970Z,6.07
2022-08-10T06:00:12.648Z,6.78
2022-08-10T06:02:32.079Z,7.35
2022-08-10T06:04:57.519Z,6.45
2022-08-10T06:07:27.281Z,6.28
2022-08-10T06:09:58.662Z,6.35
2022-08-10T06:12:29.805Z,5.78
2022-08-10T06:15:05.989Z,6.30
2022-08-10T06:17:37.203Z,5.68
2022-08-10T06:20:04.095Z,5.47
2022-08-10T06:22:33.916Z,5.03
2022-08-10T06:27:50.841Z,5.47
2022-08-10T06:30:21.003Z,5.05
2022-08-10T06:32:51.936Z,5.70
2022-08-10T06:35:19.266Z,5.85
2022-08-10T06:37:50.601Z,5.18
2022-08-10T06:40:19.098Z,5.38
2022-08-10T06:42:48.595Z,5.32
2022-08-10T06:45:21.257Z,5.05
2022-08-10T06:47:59.555Z,5.10
2022-08-10T06:50:59.082Z,4.63
2022-08-10T06:53:53.305Z,5.00
2022-08-10T06:56:18.786Z,4.20
2022-08-10T06:58:49.744Z,4.07
2022-08-10T07:01:20.830Z,3.38
2022-08-10T07:03:54.279Z,3.03
2022-08-10T07:06:21.254Z,3.13
2022-08-10T07:08:49.020Z,2.70
2022-08-10T07:11:15.871Z,2.95
2022-08-10T07:14:17.434Z,2.63
2022-08-10T07:16:30.385Z,2.88
2022-08-10T07:18:58.094Z,2.72
2022-08-10T07:21:26.712Z,2.63
2022-08-10T07:23:58.185Z,2.55
2022-08-10T07:26:27.338Z,2.53
2022-08-10T07:28:54.340Z,2.30
2022-08-10T07:31:55.236Z,2.47
2022-08-10T07:34:09.225Z,2.50
2022-08-10T07:36:37.069Z,2.50
2022-08-10T07:39:05.228Z,2.28
2022-08-10T07:41:33.150Z,2.65
2022-08-10T07:44:03.013Z,2.97
2022-08-10T07:46:30.416Z,2.20
2022-08-10T07:49:19.270Z,2.63
2022-08-10T07:51:54.539Z,2.42
2022-08-10T07:54:23.398Z,2.30
2022-08-10T07:56:54.112Z,2.30
2022-08-10T07:59:23.661Z,2.30
2022-08-10T08:01:53.692Z,2.63
2022-08-10T08:04:22.322Z,2.92
2022-08-10T08:06:50.188Z,2.20
2022-08-10T08:09:18.639Z,2.17
2022-08-10T08:11:46.519Z,2.17
2022-08-10T08:14:14.843Z,2.00
2022-08-10T08:16:44.316Z,2.10
2022-08-10T08:19:28.435Z,1.90
2022-08-10T08:24:10.319Z,2.17
2022-08-10T08:24:45.886Z,2.13
2022-08-10T08:27:16.065Z,2.65
2022-08-10T08:29:44.973Z,2.65
2022-08-10T08:32:12.754Z,1.80
2022-08-10T08:34:42.795Z,2.30
2022-08-10T08:37:11.127Z,2.05
2022-08-10T08:39:38.155Z,2.20
2022-08-10T08:42:19.881Z,2.60
2022-08-10T08:45:17.646Z,2.40
2022-08-10T08:48:21.189Z,2.00
2022-08-10T08:50:57.810Z,2.50
2022-08-10T08:54:01.817Z,2.08
2022-08-10T08:56:50.434Z,2.15
2022-08-10T08:59:47.224Z,2.25
2022-08-10T09:02:54.719Z,2.40
2022-08-10T09:05:58.376Z,2.38
2022-08-10T09:08:36.547Z,2.28
2022-08-10T09:11:23.676Z,2.13
2022-08-10T09:14:16.786Z,2.53
2022-08-10T09:17:00.003Z,2.50
2022-08-10T09:19:48.631Z,2.25
2022-08-10T09:22:26.123Z,2.00
2022-08-10T09:25:01.064Z,2.30
2022-08-10T09:27:43.351Z,2.22
2022-08-10T09:30:11.673Z,2.22
2022-08-10T09:33:05.413Z,1.98
2022-08-10T09:36:29.349Z,2.10
2022-08-10T09:38:57.248Z,2.60
2022-08-10T09:41:43.304Z,2.80
2022-08-10T09:44:58.238Z,2.50
2022-08-10T09:47:59.942Z,2.30
2022-08-10T09:51:16.271Z,2.63
2022-08-10T09:53:43.408Z,2.53
2022-08-10T09:56:28.247Z,2.30
2022-08-10T09:59:26.838Z,2.08
2022-08-10T10:02:18.988Z,2.50
2022-08-10T10:05:20.887Z,2.20
2022-08-10T10:07:58.222Z,2.17
2022-08-10T10:10:30.548Z,2.28
2022-08-10T10:13:00.612Z,2.05
2022-08-10T10:15:51.215Z,2.10
2022-08-10T10:18:27.264Z,2.00
2022-08-10T10:21:55.578Z,2.50
2022-08-10T10:24:34.306Z,2.17
2022-08-10T10:27:15.963Z,1.88
2022-08-10T10:30:11.823Z,1.88
2022-08-10T10:32:57.649Z,2.45
2022-08-10T10:35:37.043Z,1.98
2022-08-10T10:38:07.146Z,2.05
2022-08-10T10:40:49.951Z,1.90
2022-08-10T10:43:35.098Z,2.28
2022-08-10T10:46:23.262Z,2.33
2022-08-10T10:49:07.633Z,2.33
2022-08-10T10:51:40.507Z,1.80
2022-08-10T10:54:16.004Z,2.00
2022-08-10T10:56:54.570Z,1.70
2022-08-10T10:59:55.873Z,2.08
2022-08-10T11:02:19.364Z,2.00
2022-08-10T11:04:58.431Z,2.17
2022-08-10T11:07:31.996Z,2.05
2022-08-10T11:10:31.756Z,1.70
2022-08-10T11:13:03.029Z,1.65
2022-08-10T11:16:08.906Z,1.75
2022-08-10T11:18:35.247Z,1.52
2022-08-10T11:21:28.197Z,1.52
2022-08-10T11:24:47.820Z,1.73
2022-08-10T11:27:30.241Z,1.58
2022-08-10T11:30:05.720Z,1.92
2022-08-10T11:32:37.574Z,1.77
2022-08-10T11:35:19.581Z,1.80
2022-08-10T11:38:28.525Z,2.08
2022-08-10T11:42:07.950Z,1.65
2022-08-10T11:44:29.550Z,1.60
2022-08-10T11:46:58.927Z,1.63
2022-08-10T11:49:51.711Z,1.70
2022-08-10T11:52:35.663Z,1.58
2022-08-10T11:55:22.794Z,1.85
2022-08-10T11:57:54.047Z,1.40
2022-08-10T12:00:22.487Z,1.60
2022-08-10T12:03:00.214Z,1.27
2022-08-10T12:05:52.574Z,1.70
2022-08-10T12:10:04.616Z,1.60
2022-08-10T12:11:23.558Z,1.25
2022-08-10T12:14:23.055Z,1.20
2022-08-10T12:17:00.828Z,1.30
2022-08-10T12:19:59.836Z,1.60
2022-08-10T12:22:28.162Z,1.45
2022-08-10T12:25:08.534Z,1.70
2022-08-10T12:27:47.844Z,1.48
2022-08-10T12:30:15.809Z,1.20
2022-08-10T12:32:54.838Z,1.00
2022-08-10T12:36:01.680Z,0.80
2022-08-10T12:38:39.621Z,1.00
2022-08-10T12:41:43.561Z,1.00
2022-08-10T12:44:41.474Z,1.10
2022-08-10T12:47:23.810Z,1.10
2022-08-10T12:52:51.765Z,1.00
2022-08-10T12:55:19.658Z,1.00
2022-08-10T12:57:52.619Z,1.00
2022-08-10T13:00:19.268Z,1.08
2022-08-10T13:02:48.944Z,1.20
2022-08-10T13:05:15.942Z,0.82
2022-08-10T13:08:24.152Z,0.90
2022-08-10T13:10:31.188Z,0.77
2022-08-10T13:12:58.494Z,1.20
2022-08-10T13:15:49.010Z,1.25
2022-08-10T13:18:19.666Z,1.10
2022-08-10T13:20:51.343Z,1.10
2022-08-10T13:23:21.605Z,1.02
2022-08-10T13:25:48.594Z,1.20
2022-08-10T13:28:37.489Z,1.00
2022-08-10T13:31:11.386Z,1.00
2022-08-10T13:34:40.734Z,0.90
2022-08-10T13:36:41.669Z,1.00
2022-08-10T13:39:08.663Z,1.25
2022-08-10T13:41:41.001Z,1.25
2022-08-10T13:44:09.691Z,0.98
2022-08-10T13:46:40.304Z,1.30
2022-08-10T13:49:08.151Z,1.08
2022-08-10T13:51:57.523Z,1.08
2022-08-10T13:54:30.611Z,0.80
2022-08-10T13:56:57.887Z,1.15
2022-08-10T14:00:34.427Z,0.98
2022-08-10T14:02:17.446Z,1.13
2022-08-10T14:04:47.850Z,1.08
2022-08-10T14:07:16.267Z,1.10
2022-08-10T14:09:43.623Z,1.30
2022-08-10T14:12:11.536Z,1.08
2022-08-10T14:14:38.928Z,1.15
2022-08-10T14:17:06.814Z,1.00
2022-08-10T14:19:37.515Z,1.23
2022-08-10T14:22:09.866Z,1.08
2022-08-10T14:24:36.606Z,1.17
2022-08-10T14:27:08.795Z,1.20
2022-08-10T14:29:42.247Z,0.90
2022-08-10T14:32:10.470Z,1.40
2022-08-10T14:36:14.765Z,1.20
2022-08-10T14:37:37.771Z,1.05
2022-08-10T14:40:11.616Z,1.20
2022-08-10T14:42:44.394Z,1.10
2022-08-10T14:45:33.014Z,1.10
2022-08-10T14:48:10.178Z,1.08
2022-08-10T14:50:38.389Z,1.25
2022-08-10T14:53:26.779Z,1.30
2022-08-10T14:55:58.670Z,1.20
2022-08-10T14:58:30.910Z,1.00
2022-08-10T15:00:58.318Z,1.08
2022-08-10T15:03:59.401Z,1.35
2022-08-10T15:06:18.321Z,1.23
2022-08-10T15:08:47.243Z,1.10
2022-08-10T15:12:14.804Z,1.30
2022-08-10T15:14:38.767Z,1.13
2022-08-10T15:16:49.785Z,1.23
2022-08-10T15:20:03.458Z,1.30
2022-08-10T15:22:18.039Z,1.10
2022-08-10T15:25:00.374Z,1.10
2022-08-10T15:27:55.063Z,1.00
2022-08-10T15:30:30.258Z,0.95
2022-08-10T15:34:02.947Z,1.02
2022-08-10T15:36:35.428Z,1.30
2022-08-10T15:39:16.456Z,1.10
2022-08-10T15:42:01.939Z,0.90
2022-08-10T15:44:38.984Z,1.10
2022-08-10T15:47:09.067Z,1.10
2022-08-10T15:52:39.815Z,1.40
2022-08-10T15:55:42.852Z,1.00
2022-08-10T15:58:07.865Z,1.35
2022-08-10T16:00:38.155Z,1.33
2022-08-10T16:03:13.136Z,1.10
2022-08-10T16:06:02.225Z,1.08
2022-08-10T16:08:37.588Z,1.15
2022-08-10T16:11:28.197Z,1.10
2022-08-10T16:14:12.273Z,1.23
2022-08-10T16:16:40.295Z,1.05
2022-08-10T16:19:22.272Z,1.00
2022-08-10T16:21:56.232Z,1.10
2022-08-10T16:24:24.537Z,1.40
2022-08-10T16:26:52.536Z,1.30
2022-08-10T16:29:24.606Z,1.23
2022-08-10T16:31:54.393Z,1.15
2022-08-10T16:34:22.572Z,1.10
2022-08-10T16:36:57.974Z,1.30
2022-08-10T16:39:59.717Z,1.35
2022-08-10T16:42:18.562Z,1.10
2022-08-10T16:45:17.666Z,1.30
2022-08-10T16:47:46.594Z,1.40
2022-08-10T16:50:15.846Z,1.15
2022-08-10T16:52:43.732Z,1.30
2022-08-10T16:55:19.490Z,1.20
2022-08-10T16:57:53.440Z,1.30
2022-08-10T17:00:22.402Z,1.20
2022-08-10T17:02:51.432Z,1.30
2022-08-10T17:06:03.461Z,1.45
2022-08-10T17:08:08.584Z,1.35
2022-08-10T17:10:35.883Z,1.60
2022-08-10T17:13:07.308Z,1.20
2022-08-10T17:15:34.072Z,1.60
2022-08-10T17:18:03.232Z,1.10
2022-08-10T17:20:39.581Z,1.40
2022-08-10T17:23:09.755Z,1.20
2022-08-10T17:25:48.200Z,1.40
2022-08-10T17:28:34.486Z,1.38
2022-08-10T17:31:23.728Z,1.25
2022-08-10T17:36:23.863Z,1.42
2022-08-10T17:38:51.603Z,1.27
2022-08-10T17:41:23.844Z,1.33
2022-08-10T17:44:01.911Z,1.45
2022-08-10T17:46:34.523Z,1.50
2022-08-10T17:49:06.039Z,1.70
2022-08-10T17:51:32.911Z,1.40
2022-08-10T17:54:00.503Z,1.63
2022-08-10T17:56:31.817Z,1.60
2022-08-10T17:59:00.877Z,1.50
2022-08-10T18:01:40.220Z,1.42
2022-08-10T18:04:19.300Z,1.42
2022-08-10T18:06:52.492Z,1.58
2022-08-10T18:09:27.143Z,1.73
2022-08-10T18:12:01.777Z,1.48
2022-08-10T18:14:33.025Z,1.50
2022-08-10T18:17:08.584Z,1.30
2022-08-10T18:19:35.030Z,1.65
2022-08-10T18:22:02.984Z,1.40
2022-08-10T18:24:30.172Z,1.48
2022-08-10T18:26:56.719Z,1.13
2022-08-10T18:29:27.539Z,1.58
2022-08-10T18:32:01.380Z,1.60
2022-08-10T18:34:30.161Z,1.50
2022-08-10T18:36:57.138Z,1.60
2022-08-10T18:39:35.370Z,1.45
2022-08-10T18:42:25.992Z,1.50
2022-08-10T18:44:55.330Z,1.80
2022-08-10T18:47:31.172Z,1.77
2022-08-10T18:50:12.403Z,1.65
2022-08-10T18:52:42.696Z,1.70
2022-08-10T18:55:27.173Z,1.73
2022-08-10T18:58:00.826Z,1.80
2022-08-10T19:00:34.066Z,1.60
2022-08-10T19:03:05.187Z,2.00
2022-08-10T19:05:53.116Z,1.70
2022-08-10T19:08:31.017Z,1.48
2022-08-10T19:11:03.812Z,1.70
2022-08-10T19:13:59.407Z,2.03
2022-08-10T19:16:36.346Z,2.08
2022-08-10T19:19:21.775Z,1.90
2022-08-10T19:22:09.376Z,2.03
2022-08-10T19:25:09.790Z,1.75
2022-08-10T19:28:01.166Z,1.67
2022-08-10T19:30:35.681Z,1.70
2022-08-10T19:33:18.174Z,2.15
2022-08-10T19:36:03.990Z,2.00
2022-08-10T19:39:00.868Z,1.63
2022-08-10T19:42:11.473Z,2.15
2022-08-10T19:45:00.312Z,1.80
2022-08-10T19:47:45.545Z,1.80
2022-08-10T19:50:24.119Z,2.00
2022-08-10T19:53:05.904Z,2.17
2022-08-10T19:55:43.291Z,1.65
2022-08-10T19:58:21.485Z,1.90
2022-08-10T20:00:58.995Z,2.00
2022-08-10T20:03:35.875Z,1.98
2022-08-10T20:06:20.407Z,2.05
2022-08-10T20:09:01.640Z,1.90
2022-08-10T20:11:46.155Z,1.85
2022-08-10T20:14:22.258Z,2.25
2022-08-10T20:16:51.380Z,1.80
2022-08-10T20:19:53.459Z,1.92
2022-08-10T20:22:29.360Z,2.05
2022-08-10T20:25:17.666Z,1.67
2022-08-10T20:27:59.836Z,2.15
2022-08-10T20:30:31.448Z,1.88
2022-08-10T20:33:09.119Z,1.80
2022-08-10T20:36:07.999Z,1.70
2022-08-10T20:38:58.069Z,1.60
2022-08-10T20:41:57.925Z,2.05
2022-08-10T20:44:43.358Z,1.98
2022-08-10T20:47:53.973Z,1.58
2022-08-10T20:50:46.215Z,1.65
2022-08-10T20:53:15.527Z,1.90
2022-08-10T20:55:54.459Z,1.80
2022-08-10T20:58:33.173Z,1.80
2022-08-10T21:01:19.170Z,1.80
2022-08-10T21:04:13.108Z,1.80
2022-08-10T21:09:57.325Z,1.60
2022-08-10T21:12:44.094Z,1.70
2022-08-10T21:15:41.827Z,1.73
2022-08-10T21:18:22.219Z,1.55
2022-08-10T21:24:04.202Z,1.80
2022-08-10T21:26:46.078Z,2.00
2022-08-10T21:29:37.991Z,2.70
2022-08-10T21:32:13.626Z,1.83
2022-08-10T21:35:02.984Z,1.90
2022-08-10T21:38:08.589Z,1.75
2022-08-10T21:41:18.298Z,1.92
2022-08-10T21:44:18.277Z,1.95
2022-08-10T21:47:12.544Z,1.83
2022-08-10T21:50:18.526Z,1.75
2022-08-10T21:53:43.695Z,2.05
2022-08-10T21:56:51.047Z,1.60
2022-08-10T21:59:56.953Z,1.98
2022-08-10T22:02:49.789Z,1.83
2022-08-10T22:05:41.955Z,1.60
2022-08-10T22:08:29.537Z,2.10
2022-08-10T22:11:16.325Z,2.20
2022-08-10T22:14:04.932Z,1.83
2022-08-10T22:17:02.309Z,2.08
2022-08-10T22:19:54.759Z,2.10
2022-08-10T22:26:19.822Z,2.30
2022-08-10T22:29:09.843Z,2.40
2022-08-10T22:31:24.559Z,1.67
2022-08-10T22:32:33.357Z,2.38
2022-08-10T22:35:18.449Z,2.38
2022-08-10T22:38:22.025Z,2.00
2022-08-10T22:41:07.987Z,1.70
2022-08-10T22:43:53.507Z,2.30
2022-08-10T22:46:43.889Z,2.20
2022-08-10T22:49:10.615Z,1.70
2022-08-10T22:51:56.687Z,1.70
2022-08-10T22:54:58.403Z,2.20
2022-08-10T22:57:43.978Z,2.17
2022-08-10T23:00:30.689Z,1.98
2022-08-10T23:03:22.103Z,2.45
2022-08-10T23:05:56.194Z,1.77
2022-08-10T23:08:45.529Z,2.53
2022-08-10T23:11:22.974Z,2.47
2022-08-10T23:14:01.287Z,2.13
2022-08-10T23:16:47.854Z,2.47
2022-08-10T23:19:22.174Z,1.90
2022-08-10T23:22:04.151Z,2.35
2022-08-10T23:24:55.061Z,1.83
2022-08-10T23:27:37.989Z,2.40
2022-08-10T23:30:17.521Z,2.60
2022-08-10T23:32:51.831Z,2.50
2022-08-10T23:36:29.875Z,2.20
2022-08-10T23:38:07.909Z,2.17
2022-08-10T23:40:35.728Z,2.47
2022-08-10T23:43:03.450Z,2.47
2022-08-10T23:45:31.477Z,2.38
2022-08-10T23:48:22.823Z,2.70
2022-08-10T23:51:16.481Z,2.10
2022-08-10T23:53:45.267Z,2.15
2022-08-10T23:56:17.184Z,2.30
2022-08-10T23:58:46.487Z,2.72
